createdAt,value
2018-06-10T00:00:29.589Z,100921.93
2018-06-10T00:02:59.234Z,100918.17
2018-06-10T00:05:28.804Z,100913.05
2018-06-10T00:07:58.902Z,100924.48
2018-06-10T00:10:29.447Z,100919.56
2018-06-10T00:12:59.378Z,100918.22
2018-06-10T00:15:28.792Z,100921.93
2018-06-10T00:17:58.479Z,100918.73
2018-06-10T00:20:28.097Z,100917.55
2018-06-10T00:22:57.718Z,100914.48
2018-06-10T00:25:27.573Z,100913.14
2018-06-10T00:28:03.824Z,100897.57
2018-06-10T00:30:33.375Z,100900.16
2018-06-10T00:33:02.946Z,100890.16
2018-06-10T00:35:32.586Z,100880.42
2018-06-10T00:38:02.751Z,100886.52
2018-06-10T00:40:32.398Z,100885.50
2018-06-10T00:43:01.963Z,100883.80
2018-06-10T00:45:31.512Z,100878.76
2018-06-10T00:48:01.394Z,100883.47
2018-06-10T00:50:31.281Z,100884.14
2018-06-10T00:53:01.068Z,100879.74
2018-06-10T00:55:30.536Z,100884.14
2018-06-10T00:58:00.371Z,100879.53
2018-06-10T01:00:30.259Z,100880.38
2018-06-10T01:02:59.825Z,100878.34
2018-06-10T01:05:29.704Z,100882.41
2018-06-10T01:07:59.901Z,100878.69
2018-06-10T01:10:29.918Z,100875.47
2018-06-10T01:12:59.535Z,100873.98
2018-06-10T01:15:30.671Z,100879.06
2018-06-10T01:18:00.228Z,100872.97
2018-06-10T01:20:29.741Z,100868.56
2018-06-10T01:22:59.287Z,100869.23
2018-06-10T01:25:28.821Z,100864.63
2018-06-10T01:27:58.682Z,100860.23
2018-06-10T01:30:29.338Z,100856.00
2018-06-10T01:32:58.848Z,100855.66
2018-06-10T01:35:28.509Z,100853.63
2018-06-10T01:37:58.419Z,100852.98
2018-06-10T01:40:27.866Z,100857.38
2018-06-10T01:42:57.376Z,100854.36
2018-06-10T03:07:26.277Z,100819.69
2018-06-10T03:09:55.771Z,100817.83
2018-06-10T03:12:25.435Z,100819.57
2018-06-10T03:14:54.868Z,100819.98
2018-06-10T03:17:24.390Z,100818.50
2018-06-10T03:19:53.778Z,100815.95
2018-06-10T03:22:23.296Z,100812.41
2018-06-10T03:24:52.609Z,100813.76
2018-06-10T03:27:23.037Z,100809.02
2018-06-10T03:29:53.040Z,100801.91
2018-06-10T03:32:22.689Z,100804.45
2018-06-10T03:34:52.014Z,100808.31
2018-06-10T03:37:21.454Z,100809.53
2018-06-10T03:39:50.711Z,100799.91
2018-06-10T03:42:20.134Z,100799.06
2018-06-10T03:44:49.545Z,100798.55
2018-06-10T03:47:18.920Z,100801.57
2018-06-10T03:49:48.325Z,100802.75
2018-06-10T03:52:17.718Z,100799.70
2018-06-10T03:54:46.988Z,100797.00
2018-06-10T03:57:16.299Z,100799.70
2018-06-10T03:59:45.561Z,100796.69
2018-06-10T04:02:14.818Z,100800.42
2018-06-10T04:04:44.162Z,100797.70
2018-06-10T04:07:13.545Z,100792.63
2018-06-10T04:09:42.845Z,100786.90
2018-06-10T04:12:12.082Z,100783.48
2018-06-10T04:14:41.755Z,100784.70
2018-06-10T04:17:11.031Z,100784.36
2018-06-10T04:19:40.328Z,100788.30
2018-06-10T04:22:09.921Z,100789.30
2018-06-10T04:24:39.237Z,100792.68
2018-06-10T04:27:08.616Z,100801.77
2018-06-10T04:29:38.050Z,100810.75
2018-06-10T04:32:07.348Z,100824.55
2018-06-10T04:34:36.822Z,100842.55
2018-06-10T04:37:06.285Z,100850.70
2018-06-10T04:39:35.862Z,100846.60
2018-06-10T04:42:05.544Z,100833.86
2018-06-10T04:44:34.995Z,100843.80
2018-06-10T04:47:04.458Z,100847.33
2018-06-10T04:49:33.811Z,100843.42
2018-06-10T04:52:03.464Z,100844.06
2018-06-10T04:54:32.982Z,100843.17
2018-06-10T04:57:02.509Z,100837.89
2018-06-10T04:59:31.910Z,100834.20
2018-06-10T05:02:01.365Z,100834.58
2018-06-10T05:04:31.059Z,100835.30
2018-06-10T05:07:00.861Z,100834.63
2018-06-10T05:09:30.263Z,100828.19
2018-06-10T05:11:59.817Z,100822.43
2018-06-10T05:14:29.662Z,100821.08
2018-06-10T05:16:59.292Z,100821.08
2018-06-10T05:19:29.308Z,100818.40
2018-06-10T05:21:58.930Z,100812.98
2018-06-10T05:24:28.365Z,100811.79
2018-06-10T05:26:57.731Z,100804.36
2018-06-10T05:29:27.558Z,100801.16
2018-06-10T05:31:57.008Z,100802.22
2018-06-10T05:34:27.254Z,100799.89
2018-06-10T05:36:57.545Z,100790.37
2018-06-10T05:39:27.927Z,100790.02
2018-06-10T05:41:57.740Z,100775.38
2018-06-10T05:44:27.403Z,100776.67
2018-06-10T05:46:57.083Z,100780.23
2018-06-10T05:49:27.200Z,100779.79
2018-06-10T05:51:56.962Z,100781.96
2018-06-10T05:54:26.349Z,100775.94
2018-06-10T05:56:55.761Z,100772.16
2018-06-10T05:59:25.986Z,100767.20
2018-06-10T06:01:55.315Z,100765.95
2018-06-10T06:04:24.680Z,100764.13
2018-06-10T06:06:54.016Z,100759.50
2018-06-10T06:09:23.450Z,100759.50
2018-06-10T06:11:52.717Z,100759.31
2018-06-10T06:14:22.030Z,100756.59
2018-06-10T06:16:51.357Z,100756.83
2018-06-10T06:19:20.606Z,100759.08
2018-06-10T06:21:50.046Z,100758.67
2018-06-10T06:24:19.329Z,100761.95
2018-06-10T06:26:48.559Z,100763.63
2018-06-10T06:29:18.094Z,100750.02
2018-06-10T06:31:47.697Z,100744.35
2018-06-10T06:34:16.941Z,100736.38
2018-06-10T06:36:46.189Z,100736.95
2018-06-10T06:39:15.602Z,100734.50
2018-06-10T06:41:45.080Z,100736.00
2018-06-10T06:44:14.345Z,100735.22
2018-06-10T06:46:43.669Z,100740.70
2018-06-10T06:49:12.940Z,100738.17
2018-06-10T06:51:42.221Z,100743.10
2018-06-10T06:54:11.479Z,100742.05
2018-06-10T06:56:40.992Z,100741.28
2018-06-10T06:59:10.368Z,100735.89
2018-06-10T07:01:40.011Z,100733.77
2018-06-10T07:04:09.238Z,100742.65
2018-06-10T07:06:38.573Z,100741.65
2018-06-10T07:09:08.369Z,100733.33
2018-06-10T07:11:37.770Z,100743.87
2018-06-10T07:14:07.391Z,100752.98
2018-06-10T07:16:36.665Z,100763.20
2018-06-10T07:19:06.013Z,100767.59
2018-06-10T07:21:35.770Z,100764.62
2018-06-10T07:24:05.386Z,100768.52
2018-06-10T07:26:34.733Z,100769.73
2018-06-10T07:29:04.414Z,100759.78
2018-06-10T07:31:33.949Z,100763.81
2018-06-10T07:34:03.558Z,100768.55
2018-06-10T07:36:33.306Z,100770.42
2018-06-10T07:39:03.057Z,100761.73
2018-06-10T07:41:32.573Z,100771.52
2018-06-10T07:44:02.190Z,100771.11
2018-06-10T07:46:31.926Z,100776.30
2018-06-10T07:49:01.813Z,100777.85
2018-06-10T07:51:31.612Z,100781.13
2018-06-10T07:54:01.024Z,100791.20
2018-06-10T07:56:30.413Z,100789.34
2018-06-10T07:59:00.157Z,100792.50
2018-06-10T08:01:29.673Z,100796.31
2018-06-10T08:03:59.823Z,100798.93
2018-06-10T08:06:29.910Z,100810.20
2018-06-10T08:08:59.589Z,100798.36
2018-06-10T08:11:29.613Z,100790.24
2018-06-10T08:13:59.613Z,100787.52
2018-06-10T08:16:29.528Z,100783.36
2018-06-10T08:19:02.789Z,100775.83
2018-06-10T08:21:32.239Z,100766.34
2018-06-10T08:24:02.027Z,100759.59
2018-06-10T08:26:31.959Z,100759.78
2018-06-10T08:29:01.785Z,100766.81
2018-06-10T08:31:31.567Z,100777.94
2018-06-10T08:34:01.870Z,100784.17
2018-06-10T08:36:31.779Z,100788.43
2018-06-10T08:39:01.901Z,100789.93
2018-06-10T08:41:31.963Z,100790.10
2018-06-10T08:44:03.162Z,100787.92
2018-06-10T08:46:33.314Z,100779.22
2018-06-10T08:49:04.512Z,100772.07
2018-06-10T08:51:35.772Z,100771.75
2018-06-10T08:54:05.534Z,100774.55
2018-06-10T08:56:35.629Z,100779.20
2018-06-10T08:59:05.150Z,100779.48
2018-06-10T09:01:34.674Z,100788.98
2018-06-10T09:04:04.205Z,100790.77
2018-06-10T09:06:34.144Z,100797.72
2018-06-10T09:09:04.852Z,100796.30
2018-06-10T09:11:34.334Z,100797.98
2018-06-10T09:14:04.404Z,100802.85
2018-06-10T09:16:35.934Z,100806.20
2018-06-10T09:19:05.991Z,100803.80
2018-06-10T09:21:35.958Z,100799.40
2018-06-10T09:24:05.650Z,100796.94
2018-06-10T09:26:37.478Z,100802.91
2018-06-10T09:29:06.956Z,100809.32
2018-06-10T09:31:37.224Z,100816.08
2018-06-10T09:34:07.966Z,100821.62
2018-06-10T09:36:38.190Z,100817.55
2018-06-10T09:39:09.202Z,100821.96
2018-06-10T09:41:39.026Z,100825.85
2018-06-10T09:44:08.543Z,100820.39
2018-06-10T09:46:38.310Z,100824.13
2018-06-10T09:49:07.737Z,100827.34
2018-06-10T09:51:38.556Z,100838.47
2018-06-10T09:54:08.207Z,100834.43
2018-06-10T09:56:38.099Z,100837.36
2018-06-10T09:59:07.777Z,100851.09
2018-06-10T10:01:37.835Z,100877.37
2018-06-10T10:04:07.325Z,100871.23
2018-06-10T10:06:36.731Z,100871.41
2018-06-10T10:09:08.048Z,100867.20
2018-06-10T10:11:37.514Z,100870.08
2018-06-10T10:14:07.211Z,100874.14
2018-06-10T10:16:37.410Z,100877.03
2018-06-10T10:19:06.837Z,100883.64
2018-06-10T10:21:36.421Z,100885.00
2018-06-10T10:24:06.297Z,100888.73
2018-06-10T10:26:36.049Z,100874.13
2018-06-10T10:29:06.576Z,100876.84
2018-06-10T10:31:36.593Z,100875.33
2018-06-10T10:34:05.975Z,100880.25
2018-06-10T10:36:35.326Z,100879.05
2018-06-10T10:39:07.265Z,100889.57
2018-06-10T10:41:36.766Z,100884.98
2018-06-10T10:44:06.439Z,100889.39
2018-06-10T10:46:35.812Z,100892.47
2018-06-10T10:49:05.790Z,100888.03
2018-06-10T10:51:35.945Z,100888.37
2018-06-10T10:54:05.723Z,100893.97
2018-06-10T10:56:35.537Z,100884.14
2018-06-10T10:59:05.591Z,100879.23
2018-06-10T11:01:35.416Z,100874.91
2018-06-10T11:04:05.246Z,100874.96
2018-06-10T11:06:36.117Z,100873.95
2018-06-10T11:09:07.973Z,100873.56
2018-06-10T11:11:38.005Z,100871.91
2018-06-10T11:14:07.315Z,100879.80
2018-06-10T11:16:36.812Z,100877.96
2018-06-10T11:19:06.863Z,100885.61
2018-06-10T11:21:36.366Z,100874.45
2018-06-10T11:24:05.931Z,100872.55
2018-06-10T11:26:35.625Z,100871.20
2018-06-10T11:29:05.679Z,100867.30
2018-06-10T11:31:35.302Z,100864.97
2018-06-10T11:34:12.352Z,100867.17
2018-06-10T11:36:43.096Z,100872.93
2018-06-10T11:39:14.123Z,100872.04
2018-06-10T11:41:43.920Z,100888.52
2018-06-10T11:44:14.758Z,100885.09
2018-06-10T11:46:45.418Z,100888.47
2018-06-10T11:49:15.038Z,100884.11
2018-06-10T11:51:44.768Z,100877.45
2018-06-10T11:54:15.704Z,100877.97
2018-06-10T11:56:45.230Z,100876.62
2018-06-10T11:59:14.479Z,100871.83
2018-06-10T12:01:44.380Z,100865.05
2018-06-10T12:04:13.973Z,100852.80
2018-06-10T12:06:43.227Z,100836.94
2018-06-10T12:09:13.652Z,100827.34
2018-06-10T12:11:43.183Z,100827.45
2018-06-10T12:14:12.537Z,100835.07
2018-06-10T12:16:42.658Z,100836.77
2018-06-10T12:19:11.981Z,100831.02
2018-06-10T12:21:41.427Z,100827.17
2018-06-10T12:24:10.831Z,100815.61
2018-06-10T12:26:40.561Z,100809.59
2018-06-10T12:29:21.511Z,100809.24
2018-06-10T12:31:52.301Z,100806.87
2018-06-10T12:34:23.206Z,100800.80
2018-06-10T12:36:56.392Z,100800.57
2018-06-10T12:41:55.462Z,100793.48
2018-06-10T12:44:25.608Z,100788.61
2018-06-10T12:46:55.372Z,100790.12
2018-06-10T12:49:25.921Z,100779.31
2018-06-10T12:51:55.809Z,100775.78
2018-06-10T12:54:25.402Z,100763.39
2018-06-10T12:56:55.318Z,100755.14
2018-06-10T12:59:25.990Z,100751.06
2018-06-10T13:01:55.606Z,100745.64
2018-06-10T13:04:25.216Z,100748.66
2018-06-10T13:06:55.068Z,100746.94
2018-06-10T13:09:24.590Z,100739.30
2018-06-10T13:11:54.061Z,100732.27
2018-06-10T13:14:23.481Z,100731.80
2018-06-10T13:16:52.962Z,100734.61
2018-06-10T13:19:23.630Z,100736.50
2018-06-10T13:21:52.891Z,100727.98
2018-06-10T13:24:22.242Z,100731.57
2018-06-10T13:26:51.789Z,100737.20
2018-06-10T13:29:21.045Z,100732.34
2018-06-10T13:31:50.535Z,100740.50
2018-06-10T13:34:20.463Z,100741.94
2018-06-10T13:36:49.872Z,100750.48
2018-06-10T13:39:19.365Z,100740.95
2018-06-10T13:41:48.889Z,100748.09
2018-06-10T13:44:18.281Z,100748.28
2018-06-10T13:46:47.661Z,100741.29
2018-06-10T13:49:17.372Z,100742.52
2018-06-10T13:51:47.799Z,100744.73
2018-06-10T13:54:17.281Z,100742.83
2018-06-10T13:56:46.727Z,100734.66
2018-06-10T13:59:16.114Z,100744.39
2018-06-10T14:01:46.573Z,100741.95
2018-06-10T14:04:15.945Z,100754.56
2018-06-10T14:06:45.245Z,100753.64
2018-06-10T14:09:14.550Z,100745.78
2018-06-10T14:11:43.852Z,100757.94
2018-06-10T14:14:13.350Z,100762.70
2018-06-10T14:16:42.665Z,100773.29
2018-06-10T14:19:12.069Z,100776.58
2018-06-10T14:21:41.415Z,100771.23
2018-06-10T14:24:10.793Z,100778.31
2018-06-10T14:26:40.220Z,100787.39
2018-06-10T14:29:09.770Z,100786.22
2018-06-10T14:31:39.084Z,100786.48
2018-06-10T14:36:54.155Z,100794.88
2018-06-10T14:39:23.730Z,100790.08
2018-06-10T14:41:54.016Z,100786.81
2018-06-10T14:44:23.357Z,100781.39
2018-06-10T14:46:52.828Z,100787.20
2018-06-10T14:49:22.125Z,100785.53
2018-06-10T14:51:51.529Z,100781.72
2018-06-10T14:54:21.105Z,100780.88
2018-06-10T14:56:50.512Z,100778.23
2018-06-10T14:59:19.839Z,100773.41
2018-06-10T15:01:49.724Z,100775.23
2018-06-10T15:04:19.138Z,100771.95
2018-06-10T15:06:48.637Z,100771.88
2018-06-10T15:09:18.100Z,100782.22
2018-06-10T15:11:47.500Z,100774.59
2018-06-10T15:14:17.242Z,100775.16
2018-06-10T15:16:47.508Z,100775.76
2018-06-10T15:19:16.906Z,100781.33
2018-06-10T15:21:46.388Z,100791.77
2018-06-10T15:24:15.818Z,100786.84
2018-06-10T15:26:45.205Z,100790.43
2018-06-10T15:29:14.652Z,100794.14
2018-06-10T15:31:44.027Z,100795.97
2018-06-10T15:34:13.313Z,100800.34
2018-06-10T15:36:43.026Z,100799.55
2018-06-10T15:39:12.329Z,100805.45
2018-06-10T15:41:41.852Z,100801.05
2018-06-10T15:44:11.303Z,100806.11
2018-06-10T15:46:40.687Z,100808.24
2018-06-10T15:49:09.983Z,100804.84
2018-06-10T15:51:39.801Z,100808.25
2018-06-10T15:54:09.207Z,100808.06
2018-06-10T15:56:38.732Z,100810.42
2018-06-10T15:59:08.498Z,100813.57
2018-06-10T16:01:38.003Z,100817.25
2018-06-10T16:04:07.681Z,100818.25
2018-06-10T16:06:37.475Z,100809.77
2018-06-10T16:09:08.313Z,100816.37
2018-06-10T16:11:38.093Z,100814.50
2018-06-10T16:14:07.735Z,100817.58
2018-06-10T16:16:37.400Z,100813.17
2018-06-10T16:19:07.057Z,100816.26
2018-06-10T16:21:39.778Z,100823.11
2018-06-10T16:24:11.189Z,100818.03
2018-06-10T16:26:40.799Z,100814.93
2018-06-10T16:29:10.128Z,100821.78
2018-06-10T16:31:40.049Z,100825.47
2018-06-10T16:34:09.512Z,100825.47
2018-06-10T16:36:38.979Z,100823.90
2018-06-10T16:39:11.124Z,100818.38
2018-06-10T16:41:40.534Z,100820.30
2018-06-10T16:44:09.997Z,100819.31
2018-06-10T16:46:41.396Z,100816.21
2018-06-10T16:49:11.478Z,100817.08
2018-06-10T16:51:41.229Z,100810.30
2018-06-10T16:54:13.292Z,100817.11
2018-06-10T16:56:44.657Z,100812.87
2018-06-10T16:59:22.487Z,100808.66
2018-06-10T17:01:52.216Z,100806.98
2018-06-10T17:04:23.125Z,100807.31
2018-06-10T17:06:57.163Z,100812.05
2018-06-10T17:09:31.836Z,100807.64
2018-06-10T17:12:02.690Z,100802.81
2018-06-10T17:14:32.613Z,100802.86
2018-06-10T17:17:02.177Z,100802.22
2018-06-10T17:19:31.738Z,100809.53
2018-06-10T17:22:01.335Z,100806.63
2018-06-10T17:24:30.912Z,100803.74
2018-06-10T17:27:02.338Z,100808.41
2018-06-10T17:29:32.933Z,100810.61
2018-06-10T17:32:06.277Z,100806.84
2018-06-10T17:34:40.327Z,100806.53
2018-06-10T17:37:13.869Z,100809.89
2018-06-10T17:39:43.209Z,100804.13
2018-06-10T17:42:12.464Z,100799.20
2018-06-10T17:44:42.089Z,100803.73
2018-06-10T17:47:11.378Z,100795.55
2018-06-10T17:49:41.308Z,100783.72
2018-06-10T17:52:11.117Z,100785.70
2018-06-10T17:54:40.571Z,100784.42
2018-06-10T17:57:09.971Z,100795.47
2018-06-10T17:59:40.013Z,100804.00
2018-06-10T18:02:09.474Z,100804.33
2018-06-10T18:04:39.018Z,100801.86
2018-06-10T18:07:08.408Z,100804.02
2018-06-10T18:09:37.979Z,100808.94
2018-06-10T18:12:07.720Z,100807.25
2018-06-10T18:14:37.361Z,100808.04
2018-06-10T18:17:06.979Z,100804.99
2018-06-10T18:19:36.411Z,100814.86
2018-06-10T18:22:06.407Z,100804.70
2018-06-10T18:24:36.400Z,100803.84
2018-06-10T18:27:05.938Z,100805.20
2018-06-10T18:29:35.627Z,100806.54
2018-06-10T18:32:05.049Z,100806.56
2018-06-10T18:34:34.842Z,100802.55
2018-06-10T18:37:04.239Z,100796.59
2018-06-10T18:39:33.976Z,100798.83
2018-06-10T18:42:03.383Z,100801.86
2018-06-10T18:44:33.796Z,100798.45
2018-06-10T18:47:03.486Z,100798.63
2018-06-10T18:49:32.965Z,100799.13
2018-06-10T18:52:02.613Z,100794.03
2018-06-10T18:54:32.182Z,100792.86
2018-06-10T18:57:02.274Z,100804.27
2018-06-10T18:59:32.043Z,100807.66
2018-06-10T19:02:01.550Z,100803.58
2018-06-10T19:04:31.642Z,100801.40
2018-06-10T19:07:01.140Z,100806.13
2018-06-10T19:09:31.160Z,100806.67
2018-06-10T19:12:00.660Z,100803.61
2018-06-10T19:14:30.506Z,100802.20
2018-06-10T19:17:00.293Z,100800.16
2018-06-10T19:19:30.756Z,100802.87
2018-06-10T19:22:01.043Z,100811.33
2018-06-10T19:24:41.708Z,100812.81
2018-06-10T19:27:17.989Z,100823.48
2018-06-10T19:29:47.994Z,100830.89
2018-06-10T19:32:33.596Z,100834.50
2018-06-10T19:35:07.378Z,100836.11
2018-06-10T19:37:41.608Z,100844.50
2018-06-10T19:40:20.989Z,100846.80
2018-06-10T19:42:56.418Z,100861.41
2018-06-10T19:45:29.512Z,100868.14
2018-06-10T19:48:00.410Z,100856.64
2018-06-10T19:50:33.507Z,100867.80
2018-06-10T19:53:07.660Z,100867.67
2018-06-10T19:55:38.343Z,100867.94
2018-06-10T19:58:11.239Z,100863.64
2018-06-10T20:00:44.353Z,100867.83
2018-06-10T20:03:17.293Z,100869.84
2018-06-10T20:05:50.321Z,100874.58
2018-06-10T20:08:24.913Z,100874.90
2018-06-10T20:10:58.505Z,100874.97
2018-06-10T20:13:33.082Z,100873.52
2018-06-10T20:16:06.673Z,100883.64
2018-06-10T20:18:40.283Z,100890.01
2018-06-10T20:21:13.791Z,100895.76
2018-06-10T20:23:47.803Z,100889.34
2018-06-10T20:26:22.412Z,100889.88
2018-06-10T20:28:56.515Z,100890.67
2018-06-10T20:31:30.734Z,100900.91
2018-06-10T20:34:00.404Z,100911.76
2018-06-10T20:36:30.018Z,100907.17
2018-06-10T20:38:59.594Z,100905.25
2018-06-10T20:41:29.677Z,100905.75
2018-06-10T20:43:59.131Z,100909.34
2018-06-10T20:46:28.984Z,100908.22
2018-06-10T20:48:58.946Z,100904.91
2018-06-10T20:51:28.548Z,100905.17
2018-06-10T20:53:59.146Z,100908.34
2018-06-10T20:56:29.150Z,100912.66
2018-06-10T20:58:58.675Z,100908.92
2018-06-10T21:01:29.284Z,100913.28
2018-06-10T21:03:59.206Z,100917.16
2018-06-10T21:06:28.812Z,100911.36
2018-06-10T21:08:58.656Z,100908.12
2018-06-10T21:11:28.618Z,100907.08
2018-06-10T21:13:58.225Z,100909.40
2018-06-10T21:16:28.855Z,100906.66
2018-06-10T21:18:58.542Z,100902.30
2018-06-10T21:21:29.246Z,100903.38
2018-06-10T21:23:58.859Z,100904.06
2018-06-10T21:26:28.909Z,100909.16
2018-06-10T21:28:58.687Z,100916.80
2018-06-10T21:31:28.413Z,100916.92
2018-06-10T21:33:58.127Z,100920.27
2018-06-10T21:36:28.781Z,100916.41
2018-06-10T21:38:59.459Z,100920.03
2018-06-10T21:41:29.325Z,100924.71
2018-06-10T21:43:59.085Z,100922.91
2018-06-10T21:46:29.113Z,100930.77
2018-06-10T21:48:58.881Z,100922.31
2018-06-10T21:51:28.606Z,100926.17
2018-06-10T21:53:58.751Z,100929.22
2018-06-10T21:56:28.639Z,100923.82
2018-06-10T21:59:02.753Z,100925.87
2018-06-10T22:01:36.867Z,100929.42
2018-06-10T22:04:10.888Z,100914.56
2018-06-10T22:06:40.512Z,100916.53
2018-06-10T22:09:10.307Z,100920.63
2018-06-10T22:11:40.844Z,100928.72
2018-06-10T22:14:10.321Z,100930.03
2018-06-10T22:16:40.360Z,100931.58
2018-06-10T22:19:10.391Z,100935.91
2018-06-10T22:21:39.813Z,100940.41
2018-06-10T22:24:09.584Z,100942.00
2018-06-10T22:26:39.681Z,100941.58
2018-06-10T22:29:09.117Z,100944.66
2018-06-10T22:31:39.123Z,100945.30
2018-06-10T22:34:08.705Z,100944.80
2018-06-10T22:36:38.232Z,100939.60
2018-06-10T22:39:08.613Z,100931.34
2018-06-10T22:41:38.297Z,100938.17
2018-06-10T22:44:07.775Z,100932.93
2018-06-10T22:46:37.066Z,100928.56
2018-06-10T22:49:06.714Z,100935.58
2018-06-10T22:51:36.178Z,100939.30
2018-06-10T22:54:17.162Z,100937.58
2018-06-10T22:56:46.513Z,100920.60
2018-06-10T22:59:15.757Z,100928.34
2018-06-10T23:01:45.524Z,100930.34
2018-06-10T23:04:14.765Z,100929.41
2018-06-10T23:06:44.066Z,100924.25
2018-06-10T23:09:13.668Z,100929.70
2018-06-10T23:11:43.013Z,100925.52
2018-06-10T23:14:12.410Z,100921.71
2018-06-10T23:16:42.021Z,100933.75
2018-06-10T23:19:11.372Z,100933.20
2018-06-10T23:21:40.790Z,100934.47
2018-06-10T23:24:10.918Z,100926.76
2018-06-10T23:26:40.165Z,100925.11
2018-06-10T23:29:09.485Z,100917.44
2018-06-10T23:31:38.792Z,100911.19
2018-06-10T23:34:08.044Z,100906.59
2018-06-10T23:36:37.422Z,100899.30
2018-06-10T23:39:07.355Z,100890.22
2018-06-10T23:41:36.882Z,100887.84
2018-06-10T23:44:06.564Z,100884.98
2018-06-10T23:46:36.440Z,100883.08
2018-06-10T23:49:05.862Z,100886.61
2018-06-10T23:51:35.365Z,100891.23
2018-06-10T23:54:04.974Z,100894.39
2018-06-10T23:56:34.563Z,100901.03
2018-06-10T23:59:04.064Z,100901.86
